Time;durP1;ratioP1;P1;durP2;ratioP2;P2;SDS_P1;SDS_P2;PMS_P1;PMS_P2;Temp;Humidity;BMP_temperature;BMP_pressure;BME280_temperature;BME280_humidity;BME280_pressure;Samples;Min_cycle;Max_cycle;Signal;HPM_P1;HPM_P2
2021/08/13 00:00:02;;;;;;;;;;;;;;;20.47;63.37;97286.19;30001;982;1880;-63
2021/08/13 00:00:33;;;;;;;;;;;;;;;20.46;63.38;97284.56;30001;982;1885;-63
2021/08/13 00:01:04;;;;;;;;;;;;;;;20.46;63.48;97290.09;30001;983;1862;-63
2021/08/13 00:01:35;;;;;;;;;;;;;;;20.46;63.61;97284.56;30001;983;1879;-63
2021/08/13 00:02:07;;;;;;;;;;;;;;;20.46;63.26;97287.34;30001;983;1880;-63
2021/08/13 00:02:38;;;;;;;;;;;;;;;20.46;63.15;97292.84;30001;983;1867;-62
2021/08/13 00:03:10;;;;;;;;;;;;;;;20.47;63.21;97290.91;30001;983;1876;-63
2021/08/13 00:03:41;;;;;;;;;;;;;;;20.46;63.46;97298.34;30001;983;1884;-64
2021/08/13 00:04:13;;;;;;;;;;;;;;;20.46;63.39;97290.09;30001;983;1880;-63
2021/08/13 00:04:44;;;;;;;;;;;;;;;20.46;63.35;97295.59;30001;983;1884;-62
2021/08/13 00:05:15;;;;;;;;;;;;;;;20.48;63.31;97300.78;30001;983;1880;-62
2021/08/13 00:05:46;;;;;;;;;;;;;;;20.47;63.24;97291.69;30001;982;1884;-63
2021/08/13 00:06:17;;;;;;;;;;;;;;;20.47;63.17;97296.41;30001;982;1880;-64
2021/08/13 00:06:50;;;;;;;;;;;;;;;20.48;63.22;97295.25;30001;982;1885;-64
2021/08/13 00:07:21;;;;;;;;;;;;;;;20.48;63.10;97290.56;30001;982;1880;-64
2021/08/13 00:07:52;;;;;;;;;;;;;;;20.48;63.22;97293.31;30001;983;1866;-61
2021/08/13 00:08:23;;;;;;;;;;;;;;;20.48;63.10;97290.56;30001;983;1858;-64
2021/08/13 00:08:54;;;;;;;;;;;;;;;20.48;63.28;97292.50;30001;983;1866;-64
2021/08/13 00:09:25;;;;;;;;;;;;;;;20.47;63.30;97299.16;30001;983;1875;-62
2021/08/13 00:09:56;;;;;;;;;;;;;;;20.46;63.28;97292.84;30001;983;1884;-63
2021/08/13 00:10:27;;;;;;;;;;;;;;;20.47;63.10;97296.41;30001;983;1880;-63
2021/08/13 00:10:58;;;;;;;;;;;;;;;20.46;63.27;97295.59;30001;983;1884;-63
2021/08/13 00:11:28;;;;;;;;;;;;;;;20.46;63.38;97298.34;30001;983;1881;-63
2021/08/13 00:11:59;;;;;;;;;;;;;;;20.47;63.45;97296.41;30001;983;1885;-61
2021/08/13 00:12:30;;;;;;;;;;;;;;;20.46;63.40;97294.78;30001;983;1880;-63
2021/08/13 00:13:01;;;;;;;;;;;;;;;20.46;63.62;97294.78;30001;982;1885;-63
2021/08/13 00:13:32;;;;;;;;;;;;;;;20.45;63.36;97290.44;30001;982;1880;-64
2021/08/13 00:14:04;;;;;;;;;;;;;;;20.44;63.32;97292.41;30001;982;1867;-64
2021/08/13 00:14:35;;;;;;;;;;;;;;;20.43;63.52;97288.06;30001;982;1877;-62
2021/08/13 00:15:07;;;;;;;;;;;;;;;20.42;63.48;97294.72;30001;982;1885;-64
2021/08/13 00:15:38;;;;;;;;;;;;;;;20.42;63.34;97286.44;30001;983;1880;-63
2021/08/13 00:16:09;;;;;;;;;;;;;;;20.42;63.20;97289.22;30001;983;1884;-62
2021/08/13 00:16:40;;;;;;;;;;;;;;;20.44;63.36;97286.91;30001;983;1880;-63
2021/08/13 00:17:11;;;;;;;;;;;;;;;20.44;63.18;97286.91;30001;983;1884;-62
2021/08/13 00:17:42;;;;;;;;;;;;;;;20.44;63.20;97286.91;30001;983;1880;-58
2021/08/13 00:18:13;;;;;;;;;;;;;;;20.45;63.34;97282.97;30001;983;1884;-64
2021/08/13 00:18:44;;;;;;;;;;;;;;;20.44;62.97;97275.06;30001;983;1880;-64
2021/08/13 00:19:16;;;;;;;;;;;;;;;20.45;63.22;97277.47;30001;983;1867;-62
2021/08/13 00:19:47;;;;;;;;;;;;;;;20.44;62.92;97281.41;30001;982;1876;-63
2021/08/13 00:20:20;;;;;;;;;;;;;;;20.44;63.15;97281.41;30001;980;1802;-63
2021/08/13 00:20:51;;;;;;;;;;;;;;;20.45;63.05;97282.97;30001;982;1880;-61
2021/08/13 00:21:21;;;;;;;;;;;;;;;20.46;62.82;97283.78;30001;982;1885;-62
2021/08/13 00:21:53;;;;;;;;;;;;;;;20.47;62.87;97285.38;30001;982;1880;-63
2021/08/13 00:22:23;;;;;;;;;;;;;;;20.47;62.87;97286.19;30001;982;1885;-61
2021/08/13 00:22:55;;;;;;;;;;;;;;;20.49;62.41;97280.31;30001;983;1880;-61
2021/08/13 00:23:29;;;;;;;;;;;;;;;20.49;62.71;97283.09;30001;983;1884;-63
2021/08/13 00:24:00;;;;;;;;;;;;;;;20.51;62.26;97280.78;30001;983;1880;-63
2021/08/13 00:24:33;;;;;;;;;;;;;;;20.52;62.46;97283.19;30001;983;1867;-63
2021/08/13 00:25:07;;;;;;;;;;;;;;;20.53;62.35;97289.50;30001;983;1858;-61
2021/08/13 00:25:38;;;;;;;;;;;;;;;20.54;62.24;97289.16;30001;983;1884;-63
2021/08/13 00:26:08;;;;;;;;;;;;;;;20.56;62.32;97291.56;30001;983;1880;-62
2021/08/13 00:26:39;;;;;;;;;;;;;;;20.57;62.15;97282.97;30001;983;1884;-63
2021/08/13 00:27:10;;;;;;;;;;;;;;;20.59;62.18;97293.63;30001;982;1880;-63
2021/08/13 00:27:41;;;;;;;;;;;;;;;20.59;62.12;97294.44;30001;982;1885;-63
2021/08/13 00:28:13;;;;;;;;;;;;;;;20.59;62.55;97286.16;30001;982;1863;-61
2021/08/13 00:28:43;;;;;;;;;;;;;;;20.60;62.59;97296.03;30001;982;1880;-61
2021/08/13 00:29:14;;;;;;;;;;;;;;;20.60;62.58;97295.25;30001;982;1880;-63
2021/08/13 00:29:45;;;;;;;;;;;;;;;20.58;62.87;97290.06;30001;982;1885;-62
2021/08/13 00:30:16;;;;;;;;;;;;;;;20.58;62.70;97298.34;30001;982;1881;-63
2021/08/13 00:30:48;;;;;;;;;;;;;;;20.60;63.07;97290.53;30001;983;1867;-63
2021/08/13 00:31:19;;;;;;;;;;;;;;;20.59;63.31;97290.88;30001;983;1875;-60
2021/08/13 00:31:49;;;;;;;;;;;;;;;20.59;62.98;97299.94;30001;983;1884;-64
2021/08/13 00:32:20;;;;;;;;;;;;;;;20.58;63.02;97292.84;30001;983;1880;-63
2021/08/13 00:32:51;;;;;;;;;;;;;;;20.57;62.66;97295.94;30001;983;1884;-63
2021/08/13 00:33:22;;;;;;;;;;;;;;;20.57;62.81;97285.72;30001;983;1880;-63
2021/08/13 00:33:53;;;;;;;;;;;;;;;20.57;63.06;97287.66;30001;985;1876;-63
2021/08/13 00:34:24;;;;;;;;;;;;;;;20.55;62.78;97288.00;30001;983;1867;-63
2021/08/13 00:34:55;;;;;;;;;;;;;;;20.55;62.95;97292.72;30001;982;1876;-63
2021/08/13 00:35:25;;;;;;;;;;;;;;;20.55;63.01;97287.22;30001;982;1884;-62
2021/08/13 00:35:56;;;;;;;;;;;;;;;20.55;63.22;97292.72;30001;982;1863;-63
2021/08/13 00:36:27;;;;;;;;;;;;;;;20.54;63.32;97291.12;30001;982;1863;-63
2021/08/13 00:36:58;;;;;;;;;;;;;;;20.53;62.95;97290.31;30001;982;1880;-63
2021/08/13 00:37:30;;;;;;;;;;;;;;;20.52;63.13;97288.72;30001;982;1885;-61
2021/08/13 00:38:01;;;;;;;;;;;;;;;20.52;63.29;97294.22;30001;983;1880;-60
2021/08/13 00:38:32;;;;;;;;;;;;;;;20.51;63.51;97292.63;30001;983;1884;-60
2021/08/13 00:39:03;;;;;;;;;;;;;;;20.50;63.62;97291.00;30001;983;1880;-63
2021/08/13 00:39:34;;;;;;;;;;;;;;;20.48;63.74;97287.78;30001;983;1884;-63
2021/08/13 00:40:07;;;;;;;;;;;;;;;20.46;63.70;97301.13;30001;983;1880;-63
2021/08/13 00:40:37;;;;;;;;;;;;;;;20.45;63.60;97294.00;30001;983;1884;-62
2021/08/13 00:41:08;;;;;;;;;;;;;;;20.45;63.72;97298.72;30001;983;1880;-64
2021/08/13 00:41:39;;;;;;;;;;;;;;;20.44;64.05;97297.94;30001;983;1867;-64
2021/08/13 00:42:10;;;;;;;;;;;;;;;20.42;64.09;97291.97;30001;982;1782;-61
2021/08/13 00:42:44;;;;;;;;;;;;;;;20.43;64.15;97298.28;30001;982;1885;-63
2021/08/13 00:43:14;;;;;;;;;;;;;;;20.41;64.23;97298.62;30001;982;1880;-62
2021/08/13 00:43:46;;;;;;;;;;;;;;;20.38;64.15;97299.31;30001;982;1885;-60
2021/08/13 00:44:17;;;;;;;;;;;;;;;20.37;64.19;97298.50;30001;982;1880;-62
2021/08/13 00:44:48;;;;;;;;;;;;;;;20.35;64.23;97299.97;30001;982;1885;-64
2021/08/13 00:45:19;;;;;;;;;;;;;;;20.33;64.25;97296.75;30001;982;1881;-64
2021/08/13 00:45:50;;;;;;;;;;;;;;;20.31;64.39;97299.06;30001;972;1902;-63
2021/08/13 00:46:21;;;;;;;;;;;;;;;20.31;64.28;97293.53;30001;983;1880;-63
2021/08/13 00:46:52;;;;;;;;;;;;;;;20.31;64.22;97288.84;30001;983;1867;-63
2021/08/13 00:47:22;;;;;;;;;;;;;;;20.29;64.29;97291.12;30001;983;1875;-63
2021/08/13 00:47:54;;;;;;;;;;;;;;;20.29;64.23;97288.37;30001;983;1884;-62
2021/08/13 00:48:25;;;;;;;;;;;;;;;20.28;64.14;97294.22;30001;983;1880;-62
2021/08/13 00:48:56;;;;;;;;;;;;;;;20.29;63.90;97284.81;30001;983;1884;-63
2021/08/13 00:49:27;;;;;;;;;;;;;;;20.30;64.02;97291.94;30001;983;1880;-64
2021/08/13 00:49:58;;;;;;;;;;;;;;;20.29;64.16;97284.81;30001;982;1884;-62
2021/08/13 00:50:29;;;;;;;;;;;;;;;20.29;64.15;97290.31;30001;982;1880;-63
2021/08/13 00:51:00;;;;;;;;;;;;;;;20.29;64.02;97290.31;30001;982;1885;-67
2021/08/13 00:51:31;;;;;;;;;;;;;;;20.27;63.92;97287.13;30001;982;1880;-64
2021/08/13 00:52:02;;;;;;;;;;;;;;;20.27;63.96;97285.16;30001;982;1867;-61
2021/08/13 00:52:33;;;;;;;;;;;;;;;20.28;64.06;97283.22;30001;983;1875;-62
2021/08/13 00:53:06;;;;;;;;;;;;;;;20.28;63.84;97291.47;30001;983;1884;-61
2021/08/13 00:53:37;;;;;;;;;;;;;;;20.29;63.67;97290.31;30001;983;1880;-64
2021/08/13 00:54:08;;;;;;;;;;;;;;;20.28;63.71;97284.00;30001;983;1884;-62
2021/08/13 00:54:39;;;;;;;;;;;;;;;20.28;64.01;97285.97;30001;983;1880;-62
2021/08/13 00:55:10;;;;;;;;;;;;;;;20.29;63.94;97290.31;30001;983;1884;-62
2021/08/13 00:55:42;;;;;;;;;;;;;;;20.29;63.75;97282.88;30001;983;1880;-63
2021/08/13 00:56:13;;;;;;;;;;;;;;;20.30;64.19;97289.19;30001;983;1867;-63
2021/08/13 00:56:44;;;;;;;;;;;;;;;20.30;64.14;97286.44;30001;983;1875;-63
2021/08/13 00:57:15;;;;;;;;;;;;;;;20.30;64.19;97287.22;30001;983;1885;-64
2021/08/13 00:57:46;;;;;;;;;;;;;;;20.30;64.08;97287.22;30001;982;1880;-63
2021/08/13 00:58:18;;;;;;;;;;;;;;;20.29;64.08;97285.63;30001;982;1885;-64
2021/08/13 00:58:49;;;;;;;;;;;;;;;20.29;64.21;97285.63;30001;982;1880;-61
2021/08/13 00:59:20;;;;;;;;;;;;;;;20.29;63.92;97290.31;30001;982;1885;-59
2021/08/13 00:59:51;;;;;;;;;;;;;;;20.27;64.32;97281.59;30001;983;1880;-63
2021/08/13 01:00:22;;;;;;;;;;;;;;;20.26;64.30;97291.03;30001;983;1884;-63
2021/08/13 01:00:54;;;;;;;;;;;;;;;20.24;64.24;97288.59;30001;983;1880;-62
2021/08/13 01:01:25;;;;;;;;;;;;;;;20.23;64.34;97289.75;30001;983;1867;-63
2021/08/13 01:01:56;;;;;;;;;;;;;;;20.23;64.54;97295.25;30001;983;1875;-63
2021/08/13 01:02:27;;;;;;;;;;;;;;;20.22;64.36;97290.09;30001;983;1884;-63
2021/08/13 01:02:58;;;;;;;;;;;;;;;20.22;64.95;97290.09;30001;983;1880;-63
2021/08/13 01:03:30;;;;;;;;;;;;;;;20.22;64.84;97288.16;30001;983;1884;-62
2021/08/13 01:04:00;;;;;;;;;;;;;;;20.21;64.87;97288.50;30001;983;1880;-61
2021/08/13 01:04:31;;;;;;;;;;;;;;;20.20;64.89;97289.63;30001;983;1884;-64
2021/08/13 01:05:02;;;;;;;;;;;;;;;20.19;65.22;97290.78;30001;982;1880;-62
2021/08/13 01:05:33;;;;;;;;;;;;;;;20.18;65.28;97289.19;30001;982;1885;-61
2021/08/13 01:06:06;;;;;;;;;;;;;;;20.16;65.15;97291.47;30001;982;1880;-61
2021/08/13 01:06:37;;;;;;;;;;;;;;;20.15;65.36;97292.63;30001;982;1867;-64
2021/08/13 01:07:11;;;;;;;;;;;;;;;20.14;65.45;97285.50;30001;982;1876;-62
2021/08/13 01:07:42;;;;;;;;;;;;;;;20.13;65.67;97286.66;30001;983;1884;-63
2021/08/13 01:08:13;;;;;;;;;;;;;;;20.12;65.56;97285.03;30001;983;1862;-61
2021/08/13 01:08:44;;;;;;;;;;;;;;;20.10;65.33;97288.16;30001;983;1880;-63
2021/08/13 01:09:15;;;;;;;;;;;;;;;20.10;65.65;97281.84;30001;983;1880;-62
2021/08/13 01:09:46;;;;;;;;;;;;;;;20.07;65.85;97286.91;30001;983;1884;-63
2021/08/13 01:10:17;;;;;;;;;;;;;;;20.05;65.91;97286.44;30001;983;1880;-63
2021/08/13 01:11:00;;;;;;;;;;;;;;;20.03;65.54;97279.69;30001;983;1884;-63
2021/08/13 01:11:53;;;;;;;;;;;;;;;20.00;65.73;97281.16;30001;983;1880;-63
2021/08/13 01:12:44;;;;;;;;;;;;;;;19.98;65.87;97286.22;30001;982;1867;-61
2021/08/13 01:13:19;;;;;;;;;;;;;;;19.98;65.83;97286.22;30001;982;1872;-62
2021/08/13 01:13:54;;;;;;;;;;;;;;;19.98;65.84;97285.41;30001;982;1885;-62
2021/08/13 01:14:30;;;;;;;;;;;;;;;19.98;66.13;97286.22;30001;982;1881;-63
2021/08/13 01:15:06;;;;;;;;;;;;;;;19.98;65.84;97282.66;30001;983;1884;-61
2021/08/13 01:15:41;;;;;;;;;;;;;;;19.97;66.05;97284.59;30001;983;1880;-63
2021/08/13 01:16:15;;;;;;;;;;;;;;;19.95;66.06;97284.16;30001;983;1884;-63
2021/08/13 01:16:47;;;;;;;;;;;;;;;19.93;65.94;97289.19;30001;983;1862;-63
2021/08/13 01:17:20;;;;;;;;;;;;;;;19.92;66.24;97287.59;30001;983;1880;-63
2021/08/13 01:17:57;;;;;;;;;;;;;;;19.94;66.25;97287.25;30001;983;1880;-63
2021/08/13 01:18:33;;;;;;;;;;;;;;;19.92;66.43;97292.28;30001;983;1842;-59
2021/08/13 01:19:10;;;;;;;;;;;;;;;19.91;66.27;97285.97;30001;983;1880;-63
2021/08/13 01:19:59;;;;;;;;;;;;;;;19.88;66.21;97281.16;30001;983;1867;-63
2021/08/13 01:20:52;;;;;;;;;;;;;;;19.87;66.14;97285.06;30001;982;1867;-63
2021/08/13 01:21:32;;;;;;;;;;;;;;;19.86;66.35;97288.97;30001;982;1880;-62
2021/08/13 01:22:11;;;;;;;;;;;;;;;19.85;66.29;97290.09;30001;982;1863;-61
2021/08/13 01:23:05;;;;;;;;;;;;;;;19.83;66.17;97289.63;30001;983;1880;-62
2021/08/13 01:23:58;;;;;;;;;;;;;;;19.82;66.35;97292.72;30001;983;1875;-63
2021/08/13 01:24:32;;;;;;;;;;;;;;;19.81;66.57;97296.63;30001;983;1884;-61
2021/08/13 01:25:05;;;;;;;;;;;;;;;19.80;66.52;97284.00;30001;983;1880;-61
2021/08/13 01:25:36;;;;;;;;;;;;;;;19.82;66.66;97293.53;30001;983;1884;-61
2021/08/13 01:26:08;;;;;;;;;;;;;;;19.81;66.90;97302.13;30001;983;1880;-62
2021/08/13 01:26:45;;;;;;;;;;;;;;;19.80;66.65;97300.53;30001;982;1867;-62
2021/08/13 01:27:18;;;;;;;;;;;;;;;19.80;67.46;97308.78;30001;982;1876;-62
2021/08/13 01:27:50;;;;;;;;;;;;;;;19.78;67.13;97303.63;30001;982;1885;-63
2021/08/13 01:28:39;;;;;;;;;;;;;;;19.77;66.89;97302.03;30001;982;1880;-62
2021/08/13 01:29:36;;;;;;;;;;;;;;;19.76;66.75;97300.41;30001;982;1876;-63
2021/08/13 01:30:09;;;;;;;;;;;;;;;19.76;66.60;97300.41;30001;983;1858;-63
2021/08/13 01:30:40;;;;;;;;;;;;;;;19.77;66.62;97299.25;30001;983;1879;-62
2021/08/13 01:31:19;;;;;;;;;;;;;;;19.78;66.62;97297.31;30001;983;1880;-63
2021/08/13 01:32:10;;;;;;;;;;;;;;;19.79;66.53;97299.72;30001;983;1884;-63
2021/08/13 01:32:50;;;;;;;;;;;;;;;19.80;66.41;97301.34;30001;983;1880;-61
2021/08/13 01:33:22;;;;;;;;;;;;;;;19.79;66.24;97294.22;30001;983;1884;-63
2021/08/13 01:33:59;;;;;;;;;;;;;;;19.80;66.29;97300.53;30001;983;1880;-61
2021/08/13 01:34:31;;;;;;;;;;;;;;;19.81;66.25;97305.69;30001;982;1867;-62
2021/08/13 01:35:07;;;;;;;;;;;;;;;19.80;66.33;97304.09;30001;982;1859;-62
2021/08/13 01:35:44;;;;;;;;;;;;;;;19.82;66.27;97306.50;30001;982;1885;-62
2021/08/13 01:36:16;;;;;;;;;;;;;;;19.81;66.14;97302.94;30001;982;1880;-63
2021/08/13 01:36:48;;;;;;;;;;;;;;;19.81;66.88;97307.66;30001;982;1885;-63
2021/08/13 01:37:21;;;;;;;;;;;;;;;19.82;66.45;97315.56;30001;982;1863;-61
2021/08/13 01:37:54;;;;;;;;;;;;;;;19.82;66.45;97312.00;30001;983;1880;-61
2021/08/13 01:38:27;;;;;;;;;;;;;;;19.81;66.62;97308.44;30001;983;1880;-62
2021/08/13 01:39:01;;;;;;;;;;;;;;;19.82;66.40;97304.56;30001;983;1884;-62
2021/08/13 01:39:34;;;;;;;;;;;;;;;19.83;66.47;97310.87;30001;985;1872;-62
2021/08/13 01:40:07;;;;;;;;;;;;;;;19.84;66.16;97310.53;30001;983;1817;-63
2021/08/13 01:40:42;;;;;;;;;;;;;;;19.84;66.07;97307.78;30001;983;1862;-62
2021/08/13 01:41:14;;;;;;;;;;;;;;;19.86;66.10;97313.75;30001;983;1880;-62
2021/08/13 01:41:45;;;;;;;;;;;;;;;19.87;65.95;97311.78;30001;982;1880;-62
2021/08/13 01:42:17;;;;;;;;;;;;;;;19.87;66.06;97315.34;30001;982;1885;-62
2021/08/13 01:42:48;;;;;;;;;;;;;;;19.88;66.16;97313.41;30001;982;1880;-64
2021/08/13 01:43:21;;;;;;;;;;;;;;;19.88;65.99;97316.97;30001;982;1867;-62
2021/08/13 01:43:53;;;;;;;;;;;;;;;19.88;66.11;97319.72;30001;982;1876;-62
2021/08/13 01:44:25;;;;;;;;;;;;;;;19.89;65.96;97320.50;30001;958;1850;-64
2021/08/13 01:44:57;;;;;;;;;;;;;;;19.89;66.41;97320.50;30001;982;1881;-63
2021/08/13 01:45:31;;;;;;;;;;;;;;;19.87;66.16;97318.09;30001;983;1884;-62
2021/08/13 01:46:02;;;;;;;;;;;;;;;19.87;65.93;97323.59;30001;983;1880;-62
2021/08/13 01:46:33;;;;;;;;;;;;;;;19.87;66.66;97322.81;30001;983;1884;-62
2021/08/13 01:47:04;;;;;;;;;;;;;;;19.85;67.39;97325.91;30001;986;1872;-63
2021/08/13 01:47:36;;;;;;;;;;;;;;;19.84;66.97;97323.50;30001;983;1867;-61
2021/08/13 01:48:08;;;;;;;;;;;;;;;19.83;66.43;97322.69;30001;983;1876;-64
2021/08/13 01:48:39;;;;;;;;;;;;;;;19.84;66.33;97329.78;30001;983;1884;-64
2021/08/13 01:49:10;;;;;;;;;;;;;;;19.83;66.32;97322.69;30001;983;1880;-63
2021/08/13 01:49:41;;;;;;;;;;;;;;;19.82;66.33;97331.28;30001;982;1885;-64
2021/08/13 01:50:13;;;;;;;;;;;;;;;19.82;66.49;97331.28;30001;982;1880;-62
2021/08/13 01:50:44;;;;;;;;;;;;;;;19.81;66.21;97316.72;30001;982;1867;-63
2021/08/13 01:51:17;;;;;;;;;;;;;;;19.81;66.51;97321.41;30001;982;1876;-61
2021/08/13 01:51:48;;;;;;;;;;;;;;;19.81;66.23;97319.47;30001;982;1885;-61
2021/08/13 01:52:21;;;;;;;;;;;;;;;19.81;66.19;97318.66;30001;982;1881;-63
2021/08/13 01:52:55;;;;;;;;;;;;;;;19.81;65.81;97319.47;30001;983;1884;-63
2021/08/13 01:53:26;;;;;;;;;;;;;;;19.83;65.95;97321.88;30001;983;1880;-63
2021/08/13 01:53:57;;;;;;;;;;;;;;;19.82;65.75;97323.81;30001;983;1884;-62
2021/08/13 01:54:30;;;;;;;;;;;;;;;19.83;65.97;97322.69;30001;983;1862;-62
2021/08/13 01:55:01;;;;;;;;;;;;;;;19.81;65.68;97324.97;30001;983;1880;-62
2021/08/13 01:55:33;;;;;;;;;;;;;;;19.81;65.91;97324.97;30001;983;1862;-63
2021/08/13 01:56:04;;;;;;;;;;;;;;;19.82;65.91;97326.56;30001;983;1880;-63
2021/08/13 01:56:35;;;;;;;;;;;;;;;19.82;65.74;97326.56;30001;983;1880;-61
2021/08/13 01:57:06;;;;;;;;;;;;;;;19.82;65.45;97320.28;30001;982;1885;-61
2021/08/13 01:57:38;;;;;;;;;;;;;;;19.81;65.82;97318.66;30001;982;1881;-62
2021/08/13 01:58:09;;;;;;;;;;;;;;;19.83;65.79;97319.94;30001;982;1885;-62
2021/08/13 01:58:40;;;;;;;;;;;;;;;19.83;65.74;97319.94;30001;982;1880;-62
2021/08/13 01:59:12;;;;;;;;;;;;;;;19.84;65.62;97312.47;30001;982;1867;-62
2021/08/13 01:59:42;;;;;;;;;;;;;;;19.85;65.59;97325.91;30001;983;1875;-62
2021/08/13 02:00:18;;;;;;;;;;;;;;;19.86;65.64;97321.19;30001;983;1884;-63
2021/08/13 02:00:52;;;;;;;;;;;;;;;19.85;65.68;97314.88;30001;983;1880;-62
2021/08/13 02:01:23;;;;;;;;;;;;;;;19.85;65.30;97314.88;30001;983;1884;-63
2021/08/13 02:01:58;;;;;;;;;;;;;;;19.85;65.60;97309.38;30001;983;1880;-62
2021/08/13 02:02:29;;;;;;;;;;;;;;;19.85;66.00;97314.88;30001;983;1884;-61
2021/08/13 02:03:01;;;;;;;;;;;;;;;19.86;65.58;97310.97;30001;983;1863;-62
2021/08/13 02:03:33;;;;;;;;;;;;;;;19.85;65.43;97309.38;30001;983;1880;-63
2021/08/13 02:04:05;;;;;;;;;;;;;;;19.87;65.33;97315.34;30001;983;1880;-62
2021/08/13 02:04:39;;;;;;;;;;;;;;;19.86;65.51;97315.69;30001;982;1867;-58
2021/08/13 02:05:11;;;;;;;;;;;;;;;19.85;65.76;97309.38;30001;982;1876;-65
2021/08/13 02:05:42;;;;;;;;;;;;;;;19.86;65.51;97318.44;30001;982;1885;-63
2021/08/13 02:06:13;;;;;;;;;;;;;;;19.86;65.25;97322.00;30001;982;1881;-62
2021/08/13 02:06:44;;;;;;;;;;;;;;;19.87;65.16;97320.84;30001;982;1885;-63
2021/08/13 02:07:16;;;;;;;;;;;;;;;19.88;65.13;97324.41;30001;983;1880;-63
2021/08/13 02:07:47;;;;;;;;;;;;;;;19.89;65.03;97321.31;30001;983;1884;-62
2021/08/13 02:08:18;;;;;;;;;;;;;;;19.89;64.87;97329.56;30001;983;1862;-62
2021/08/13 02:08:53;;;;;;;;;;;;;;;19.90;64.77;97324.88;30001;983;1880;-63
2021/08/13 02:09:24;;;;;;;;;;;;;;;19.91;64.92;97313.50;30001;983;1880;-63
2021/08/13 02:09:55;;;;;;;;;;;;;;;19.91;64.77;97319.03;30001;983;1885;-62
2021/08/13 02:10:26;;;;;;;;;;;;;;;19.92;64.61;97319.84;30001;983;1880;-63
2021/08/13 02:10:57;;;;;;;;;;;;;;;19.93;64.43;97319.50;30001;983;1885;-63
2021/08/13 02:11:28;;;;;;;;;;;;;;;19.94;64.69;97318.34;30001;983;1881;-62
2021/08/13 02:11:59;;;;;;;;;;;;;;;19.95;64.54;97314.44;30001;982;1885;-62
2021/08/13 02:12:30;;;;;;;;;;;;;;;19.95;64.66;97314.44;30001;982;1880;-63
2021/08/13 02:13:01;;;;;;;;;;;;;;;19.96;64.32;97316.06;30001;982;1885;-62
2021/08/13 02:13:34;;;;;;;;;;;;;;;19.97;64.44;97309.41;30001;982;1863;-62
2021/08/13 02:14:06;;;;;;;;;;;;;;;19.97;64.27;97306.66;30001;982;1880;-63
2021/08/13 02:14:38;;;;;;;;;;;;;;;20.00;64.15;97308.72;30001;983;1862;-63
2021/08/13 02:15:10;;;;;;;;;;;;;;;20.01;64.03;97301.25;30001;983;1880;-62
2021/08/13 02:15:43;;;;;;;;;;;;;;;20.03;64.11;97309.97;30001;983;1880;-61
2021/08/13 02:16:16;;;;;;;;;;;;;;;20.03;64.14;97305.28;30001;983;1884;-62
2021/08/13 02:16:52;;;;;;;;;;;;;;;20.05;64.05;97308.50;30001;983;1880;-62
2021/08/13 02:17:24;;;;;;;;;;;;;;;20.05;63.76;97302.97;30001;983;1884;-63
2021/08/13 02:18:02;;;;;;;;;;;;;;;20.07;63.83;97311.69;30001;983;1880;-62
2021/08/13 02:18:35;;;;;;;;;;;;;;;20.08;63.66;97316.06;30001;983;1884;-62
2021/08/13 02:19:15;;;;;;;;;;;;;;;20.10;63.78;97314.91;30001;983;1863;-62
2021/08/13 02:20:12;;;;;;;;;;;;;;;20.11;63.74;97306.28;30001;982;1880;-61
2021/08/13 02:20:45;;;;;;;;;;;;;;;20.13;63.71;97306.75;30001;982;1876;-62
2021/08/13 02:21:17;;;;;;;;;;;;;;;20.14;63.62;97300.09;30001;982;1885;-63
2021/08/13 02:21:49;;;;;;;;;;;;;;;20.17;63.53;97306.84;30001;982;1881;-62
2021/08/13 02:22:20;;;;;;;;;;;;;;;20.17;63.54;97304.91;30001;983;1884;-63
2021/08/13 02:22:50;;;;;;;;;;;;;;;20.18;63.36;97303.75;30001;983;1862;-61
2021/08/13 02:23:22;;;;;;;;;;;;;;;20.20;63.49;97303.41;30001;983;1880;-64
2021/08/13 02:23:52;;;;;;;;;;;;;;;20.20;63.38;97300.66;30001;983;1880;-62
2021/08/13 02:24:23;;;;;;;;;;;;;;;20.21;63.41;97307.78;30001;983;1884;-62
2021/08/13 02:24:55;;;;;;;;;;;;;;;20.22;63.42;97295.59;30001;983;1880;-63
2021/08/13 02:25:25;;;;;;;;;;;;;;;20.22;63.36;97303.87;30001;983;1884;-63
2021/08/13 02:25:56;;;;;;;;;;;;;;;20.23;64.06;97303.53;30001;983;1880;-66
2021/08/13 02:26:27;;;;;;;;;;;;;;;20.23;63.52;97306.28;30001;982;1885;-62
2021/08/13 02:27:00;;;;;;;;;;;;;;;20.24;63.54;97304.34;30001;982;1880;-64
2021/08/13 02:27:32;;;;;;;;;;;;;;;20.24;63.45;97298.81;30001;982;1867;-63
2021/08/13 02:28:03;;;;;;;;;;;;;;;20.25;63.44;97300.44;30001;982;1876;-61
2021/08/13 02:28:34;;;;;;;;;;;;;;;20.25;63.53;97300.44;30001;982;1885;-63
2021/08/13 02:29:05;;;;;;;;;;;;;;;20.25;63.38;97301.25;30001;982;1881;-61
2021/08/13 02:29:36;;;;;;;;;;;;;;;20.25;63.38;97294.91;30001;983;1884;-61
2021/08/13 02:30:08;;;;;;;;;;;;;;;20.26;63.45;97302.84;30001;983;1880;-61
2021/08/13 02:30:38;;;;;;;;;;;;;;;20.27;63.38;97298.13;30001;983;1884;-62
2021/08/13 02:31:09;;;;;;;;;;;;;;;20.27;63.59;97300.91;30001;983;1880;-64
2021/08/13 02:31:40;;;;;;;;;;;;;;;20.27;63.56;97298.13;30001;983;1884;-63
2021/08/13 02:32:11;;;;;;;;;;;;;;;20.27;63.37;97300.91;30001;983;1880;-63
2021/08/13 02:32:42;;;;;;;;;;;;;;;20.27;63.55;97298.94;30001;983;1867;-62
2021/08/13 02:33:13;;;;;;;;;;;;;;;20.29;63.58;97295.84;30001;983;1876;-63
2021/08/13 02:33:44;;;;;;;;;;;;;;;20.28;63.51;97295.03;30001;983;1884;-62
2021/08/13 02:34:15;;;;;;;;;;;;;;;20.28;63.71;97289.53;30001;982;1880;-63
2021/08/13 02:34:46;;;;;;;;;;;;;;;20.27;63.31;97287.91;30001;982;1885;-62
2021/08/13 02:35:17;;;;;;;;;;;;;;;20.28;63.69;97291.47;30001;982;1880;-63
2021/08/13 02:35:48;;;;;;;;;;;;;;;20.28;63.43;97294.22;30001;982;1885;-61
2021/08/13 02:36:24;;;;;;;;;;;;;;;20.28;63.71;97295.03;30001;982;1880;-63
2021/08/13 02:37:05;;;;;;;;;;;;;;;20.28;63.57;97288.72;30001;982;1867;-63
2021/08/13 02:37:39;;;;;;;;;;;;;;;20.27;63.60;97281.59;30001;983;1875;-62
2021/08/13 02:38:16;;;;;;;;;;;;;;;20.26;63.65;97286.31;30001;983;1884;-62
2021/08/13 02:38:53;;;;;;;;;;;;;;;20.27;63.62;97293.44;30001;983;1880;-62
2021/08/13 02:39:30;;;;;;;;;;;;;;;20.25;63.75;97283.91;30001;983;1884;-62
2021/08/13 02:40:03;;;;;;;;;;;;;;;20.24;63.84;97288.59;30001;983;1880;-63
2021/08/13 02:40:36;;;;;;;;;;;;;;;20.25;63.73;97283.91;30001;983;1884;-63
2021/08/13 02:41:08;;;;;;;;;;;;;;;20.24;64.00;97282.28;30001;983;1880;-61
2021/08/13 02:41:40;;;;;;;;;;;;;;;20.25;63.81;97289.41;30001;982;1885;-62
2021/08/13 02:42:13;;;;;;;;;;;;;;;20.23;63.91;97286.19;30001;982;1863;-60
2021/08/13 02:42:47;;;;;;;;;;;;;;;20.23;63.83;97283.44;30001;982;1863;-61
2021/08/13 02:43:41;;;;;;;;;;;;;;;20.22;63.91;97284.59;30001;982;1880;-62
2021/08/13 02:44:12;;;;;;;;;;;;;;;20.22;63.84;97284.59;30001;982;1880;-63
2021/08/13 02:44:44;;;;;;;;;;;;;;;20.22;64.45;97287.34;30001;983;1879;-63
2021/08/13 02:45:17;;;;;;;;;;;;;;;20.19;64.00;97286.09;30001;983;1884;-63
2021/08/13 02:45:50;;;;;;;;;;;;;;;20.20;64.22;97284.12;30001;983;1880;-62
2021/08/13 02:46:22;;;;;;;;;;;;;;;20.18;64.23;97289.19;30001;983;1884;-63
2021/08/13 02:46:55;;;;;;;;;;;;;;;20.18;64.85;97283.66;30001;983;1880;-62
2021/08/13 02:47:28;;;;;;;;;;;;;;;20.17;64.53;97290.31;30001;983;1884;-62
2021/08/13 02:48:00;;;;;;;;;;;;;;;20.15;64.47;97284.34;30001;983;1863;-61
2021/08/13 02:48:33;;;;;;;;;;;;;;;20.15;64.44;97289.88;30001;983;1880;-62
2021/08/13 02:49:06;;;;;;;;;;;;;;;20.14;64.42;97288.25;30001;982;1881;-61
2021/08/13 02:49:45;;;;;;;;;;;;;;;20.14;64.56;97285.50;30001;982;1885;-62
2021/08/13 02:50:17;;;;;;;;;;;;;;;20.14;64.29;97289.06;30001;982;1880;-63
2021/08/13 02:50:49;;;;;;;;;;;;;;;20.14;64.52;97288.25;30001;982;1885;-61
2021/08/13 02:51:24;;;;;;;;;;;;;;;20.14;64.88;97282.75;30001;982;1880;-62
2021/08/13 02:52:01;;;;;;;;;;;;;;;20.14;64.53;97277.25;30001;982;1885;-61
2021/08/13 02:52:40;;;;;;;;;;;;;;;20.14;64.56;97277.25;30001;983;1880;-63
2021/08/13 02:53:14;;;;;;;;;;;;;;;20.14;64.64;97272.53;30001;983;1867;-63
2021/08/13 02:53:47;;;;;;;;;;;;;;;20.15;64.63;97273.34;30001;983;1875;-63
2021/08/13 02:54:22;;;;;;;;;;;;;;;20.16;64.62;97277.69;30001;983;1884;-62
2021/08/13 02:54:54;;;;;;;;;;;;;;;20.16;64.33;97269.44;30001;983;1880;-62
2021/08/13 02:55:31;;;;;;;;;;;;;;;20.18;64.46;97272.66;30001;983;1884;-63